sensor_id;sensor_type;location;lat;lon;timestamp;pressure;altitude;pressure_sealevel;temperature;humidity
25560;BME280;13450;49.374;8.584;2022-07-29T00:01:33;100235.84;;;22.48;46.78
25560;BME280;13450;49.374;8.584;2022-07-29T00:03:58;100231.19;;;22.43;44.91
25560;BME280;13450;49.374;8.584;2022-07-29T00:06:26;100227.09;;;22.41;46.66
25560;BME280;13450;49.374;8.584;2022-07-29T00:08:51;100224.09;;;22.37;47.64
25560;BME280;13450;49.374;8.584;2022-07-29T00:11:16;100224.63;;;22.29;49.79
25560;BME280;13450;49.374;8.584;2022-07-29T00:13:41;100211.78;;;22.24;51.33
25560;BME280;13450;49.374;8.584;2022-07-29T00:16:07;100212.63;;;22.19;50.42
25560;BME280;13450;49.374;8.584;2022-07-29T00:18:32;100210.69;;;22.15;52.34
25560;BME280;13450;49.374;8.584;2022-07-29T00:21:00;100200.88;;;22.08;53.40
25560;BME280;13450;49.374;8.584;2022-07-29T00:23:28;100213.94;;;22.06;53.97
25560;BME280;13450;49.374;8.584;2022-07-29T00:25:53;100203.59;;;22.03;55.45
25560;BME280;13450;49.374;8.584;2022-07-29T00:28:18;100210.38;;;22.01;56.61
25560;BME280;13450;49.374;8.584;2022-07-29T00:30:43;100207.66;;;22.01;57.86
25560;BME280;13450;49.374;8.584;2022-07-29T00:33:09;100205.47;;;21.98;55.43
25560;BME280;13450;49.374;8.584;2022-07-29T00:35:35;100209.81;;;21.93;57.45
25560;BME280;13450;49.374;8.584;2022-07-29T00:38:11;100210.63;;;21.94;57.04
25560;BME280;13450;49.374;8.584;2022-07-29T00:40:39;100204.63;;;21.92;58.40
25560;BME280;13450;49.374;8.584;2022-07-29T00:43:04;100206.25;;;21.88;56.18
25560;BME280;13450;49.374;8.584;2022-07-29T00:45:29;100211.41;;;21.84;57.22
25560;BME280;13450;49.374;8.584;2022-07-29T00:47:55;100207.84;;;21.78;56.65
25560;BME280;13450;49.374;8.584;2022-07-29T00:50:24;100202.41;;;21.78;57.64
25560;BME280;13450;49.374;8.584;2022-07-29T00:52:50;100201.28;;;21.74;56.80
25560;BME280;13450;49.374;8.584;2022-07-29T00:55:17;100214.63;;;21.76;61.13
25560;BME280;13450;49.374;8.584;2022-07-29T00:57:43;100202.59;;;21.72;59.02
25560;BME280;13450;49.374;8.584;2022-07-29T01:00:13;100212.69;;;21.71;61.37
25560;BME280;13450;49.374;8.584;2022-07-29T01:02:42;100210.50;;;21.68;57.26
25560;BME280;13450;49.374;8.584;2022-07-29T01:05:09;100203.97;;;21.69;58.83
25560;BME280;13450;49.374;8.584;2022-07-29T01:07:38;100198.53;;;21.69;60.84
25560;BME280;13450;49.374;8.584;2022-07-29T01:10:06;100202.34;;;21.68;61.43
25560;BME280;13450;49.374;8.584;2022-07-29T01:12:35;100193.63;;;21.66;60.20
25560;BME280;13450;49.374;8.584;2022-07-29T01:15:04;100194.44;;;21.66;59.37
25560;BME280;13450;49.374;8.584;2022-07-29T01:17:43;100193.41;;;21.73;61.29
25560;BME280;13450;49.374;8.584;2022-07-29T01:20:46;100185.47;;;21.71;59.65
25560;BME280;13450;49.374;8.584;2022-07-29T01:26:34;100171.84;;;21.66;59.61
25560;BME280;13450;49.374;8.584;2022-07-29T01:31:57;100162.28;;;21.63;64.60
25560;BME280;13450;49.374;8.584;2022-07-29T01:40:27;100159.84;;;21.62;62.88
25560;BME280;13450;49.374;8.584;2022-07-29T01:43:06;100160.97;;;21.66;65.37
25560;BME280;13450;49.374;8.584;2022-07-29T01:45:39;100160.13;;;21.65;62.17
25560;BME280;13450;49.374;8.584;2022-07-29T01:48:31;100159.31;;;21.70;66.84
25560;BME280;13450;49.374;8.584;2022-07-29T01:51:05;100163.69;;;21.71;63.00
25560;BME280;13450;49.374;8.584;2022-07-29T01:53:38;100160.75;;;21.73;59.68
25560;BME280;13450;49.374;8.584;2022-07-29T01:56:26;100163.16;;;21.74;62.43
25560;BME280;13450;49.374;8.584;2022-07-29T01:58:56;100171.88;;;21.71;59.28
25560;BME280;13450;49.374;8.584;2022-07-29T02:01:23;100169.66;;;21.68;59.09
25560;BME280;13450;49.374;8.584;2022-07-29T02:03:54;100172.91;;;21.65;60.10
25560;BME280;13450;49.374;8.584;2022-07-29T02:06:22;100172.91;;;21.60;58.60
25560;BME280;13450;49.374;8.584;2022-07-29T02:08:49;100166.59;;;21.54;60.84
25560;BME280;13450;49.374;8.584;2022-07-29T02:11:18;100159.78;;;21.51;65.59
25560;BME280;13450;49.374;8.584;2022-07-29T02:13:45;100162.50;;;21.46;63.91
25560;BME280;13450;49.374;8.584;2022-07-29T02:16:14;100179.34;;;21.43;64.74
25560;BME280;13450;49.374;8.584;2022-07-29T02:18:45;100164.91;;;21.37;63.89
25560;BME280;13450;49.374;8.584;2022-07-29T02:21:15;100169.78;;;21.35;64.67
25560;BME280;13450;49.374;8.584;2022-07-29T02:23:45;100169.75;;;21.30;62.47
25560;BME280;13450;49.374;8.584;2022-07-29T02:26:11;100165.66;;;21.27;67.16
25560;BME280;13450;49.374;8.584;2022-07-29T02:28:38;100174.31;;;21.19;64.81
25560;BME280;13450;49.374;8.584;2022-07-29T02:31:05;100168.31;;;21.12;65.62
25560;BME280;13450;49.374;8.584;2022-07-29T02:33:32;100167.19;;;21.08;70.73
25560;BME280;13450;49.374;8.584;2022-07-29T02:35:59;100166.09;;;21.03;69.57
25560;BME280;13450;49.374;8.584;2022-07-29T02:38:27;100167.66;;;20.94;72.10
25560;BME280;13450;49.374;8.584;2022-07-29T02:41:13;100169.19;;;20.85;68.08
25560;BME280;13450;49.374;8.584;2022-07-29T02:43:40;100167.81;;;20.82;70.69
25560;BME280;13450;49.374;8.584;2022-07-29T02:46:13;100175.16;;;20.82;68.90
25560;BME280;13450;49.374;8.584;2022-07-29T02:48:51;100183.25;;;20.76;64.07
25560;BME280;13450;49.374;8.584;2022-07-29T02:51:27;100176.19;;;20.75;66.15
25560;BME280;13450;49.374;8.584;2022-07-29T02:53:56;100175.06;;;20.71;63.99
25560;BME280;13450;49.374;8.584;2022-07-29T02:56:27;100177.22;;;20.69;63.46
25560;BME280;13450;49.374;8.584;2022-07-29T02:59:01;100181.84;;;20.69;71.31
25560;BME280;13450;49.374;8.584;2022-07-29T03:01:31;100181.53;;;20.65;67.33
25560;BME280;13450;49.374;8.584;2022-07-29T03:04:01;100181.78;;;20.63;67.27
25560;BME280;13450;49.374;8.584;2022-07-29T03:06:28;100178.25;;;20.63;72.26
25560;BME280;13450;49.374;8.584;2022-07-29T03:08:54;100183.91;;;20.56;70.25
25560;BME280;13450;49.374;8.584;2022-07-29T03:11:22;100175.19;;;20.54;72.83
25560;BME280;13450;49.374;8.584;2022-07-29T03:13:48;100178.16;;;20.52;66.70
25560;BME280;13450;49.374;8.584;2022-07-29T03:16:14;100178.16;;;20.52;66.00
25560;BME280;13450;49.374;8.584;2022-07-29T03:18:40;100174.88;;;20.50;65.49
25560;BME280;13450;49.374;8.584;2022-07-29T03:21:06;100181.91;;;20.46;67.85
25560;BME280;13450;49.374;8.584;2022-07-29T03:23:31;100175.59;;;20.41;71.12
25560;BME280;13450;49.374;8.584;2022-07-29T03:25:57;100178.56;;;20.39;67.22
25560;BME280;13450;49.374;8.584;2022-07-29T03:28:23;100175.31;;;20.37;71.63
25560;BME280;13450;49.374;8.584;2022-07-29T03:30:49;100171.50;;;20.38;70.97
25560;BME280;13450;49.374;8.584;2022-07-29T03:33:14;100167.13;;;20.32;66.04
25560;BME280;13450;49.374;8.584;2022-07-29T03:35:40;100174.19;;;20.33;68.49
25560;BME280;13450;49.374;8.584;2022-07-29T03:38:06;100171.72;;;20.31;66.19
25560;BME280;13450;49.374;8.584;2022-07-29T03:40:44;100170.09;;;20.30;66.25
25560;BME280;13450;49.374;8.584;2022-07-29T03:43:12;100175.22;;;20.27;63.30
25560;BME280;13450;49.374;8.584;2022-07-29T03:45:42;100174.66;;;20.24;68.87
25560;BME280;13450;49.374;8.584;2022-07-29T03:48:12;100177.31;;;20.19;68.13
25560;BME280;13450;49.374;8.584;2022-07-29T03:50:39;100178.09;;;20.15;70.37
25560;BME280;13450;49.374;8.584;2022-07-29T03:53:05;100178.31;;;20.08;66.86
25560;BME280;13450;49.374;8.584;2022-07-29T03:55:39;100182.13;;;20.12;66.83
25560;BME280;13450;49.374;8.584;2022-07-29T03:58:06;100182.69;;;20.14;63.80
25560;BME280;13450;49.374;8.584;2022-07-29T04:00:35;100178.09;;;20.15;64.63
25560;BME280;13450;49.374;8.584;2022-07-29T04:03:04;100179.41;;;20.12;66.52
25560;BME280;13450;49.374;8.584;2022-07-29T04:05:29;100182.94;;;20.12;63.93
25560;BME280;13450;49.374;8.584;2022-07-29T04:07:54;100182.13;;;20.12;62.56
25560;BME280;13450;49.374;8.584;2022-07-29T04:10:20;100184.84;;;20.12;61.15
25560;BME280;13450;49.374;8.584;2022-07-29T04:12:45;100182.69;;;20.14;61.88
25560;BME280;13450;49.374;8.584;2022-07-29T04:15:11;100191.34;;;20.11;59.41
25560;BME280;13450;49.374;8.584;2022-07-29T04:17:36;100183.19;;;20.11;62.37
25560;BME280;13450;49.374;8.584;2022-07-29T04:20:02;100188.84;;;20.04;63.79
25560;BME280;13450;49.374;8.584;2022-07-29T04:22:28;100190.66;;;19.98;64.38
25560;BME280;13450;49.374;8.584;2022-07-29T04:24:53;100197.91;;;19.93;63.49
25560;BME280;13450;49.374;8.584;2022-07-29T04:27:19;100199.16;;;19.85;62.43
25560;BME280;13450;49.374;8.584;2022-07-29T04:29:44;100204.53;;;19.80;62.04
25560;BME280;13450;49.374;8.584;2022-07-29T04:32:09;100201.28;;;19.78;62.11
25560;BME280;13450;49.374;8.584;2022-07-29T04:34:34;100195.00;;;19.77;61.21
25560;BME280;13450;49.374;8.584;2022-07-29T04:37:00;100205.06;;;19.77;63.45
25560;BME280;13450;49.374;8.584;2022-07-29T04:39:25;100199.63;;;19.77;65.16
25560;BME280;13450;49.374;8.584;2022-07-29T04:41:51;100202.91;;;19.79;68.96
25560;BME280;13450;49.374;8.584;2022-07-29T04:44:16;100197.16;;;19.75;64.31
25560;BME280;13450;49.374;8.584;2022-07-29T04:46:44;100204.47;;;19.74;63.21
25560;BME280;13450;49.374;8.584;2022-07-29T04:49:12;100206.06;;;19.70;62.54
25560;BME280;13450;49.374;8.584;2022-07-29T04:51:40;100203.09;;;19.72;69.33
25560;BME280;13450;49.374;8.584;2022-07-29T04:54:05;100207.69;;;19.71;65.46
25560;BME280;13450;49.374;8.584;2022-07-29T04:56:31;100206.06;;;19.70;65.69
25560;BME280;13450;49.374;8.584;2022-07-29T04:58:56;100201.22;;;19.72;65.90
25560;BME280;13450;49.374;8.584;2022-07-29T05:01:22;100200.13;;;19.73;68.35
25560;BME280;13450;49.374;8.584;2022-07-29T05:03:47;100202.91;;;19.79;73.18
25560;BME280;13450;49.374;8.584;2022-07-29T05:06:12;100200.78;;;19.81;69.37
25560;BME280;13450;49.374;8.584;2022-07-29T05:08:38;100203.00;;;19.89;74.15
25560;BME280;13450;49.374;8.584;2022-07-29T05:11:03;100209.84;;;19.92;72.62
25560;BME280;13450;49.374;8.584;2022-07-29T05:13:29;100210.72;;;19.97;68.96
25560;BME280;13450;49.374;8.584;2022-07-29T05:15:55;100211.09;;;20.01;69.02
25560;BME280;13450;49.374;8.584;2022-07-29T05:18:20;100209.22;;;20.07;70.24
25560;BME280;13450;49.374;8.584;2022-07-29T05:20:46;100208.72;;;20.10;73.22
25560;BME280;13450;49.374;8.584;2022-07-29T05:23:11;100211.50;;;20.15;71.62
25560;BME280;13450;49.374;8.584;2022-07-29T05:25:38;100214.25;;;20.20;72.50
25560;BME280;13450;49.374;8.584;2022-07-29T05:28:03;100214.06;;;20.27;74.04
25560;BME280;13450;49.374;8.584;2022-07-29T05:30:31;100207.28;;;20.30;70.38
25560;BME280;13450;49.374;8.584;2022-07-29T05:32:58;100212.50;;;20.36;65.93
25560;BME280;13450;49.374;8.584;2022-07-29T05:35:26;100215.03;;;20.43;67.28
25560;BME280;13450;49.374;8.584;2022-07-29T05:37:51;100210.75;;;20.52;68.54
25560;BME280;13450;49.374;8.584;2022-07-29T05:40:17;100209.84;;;20.69;72.42
25560;BME280;13450;49.374;8.584;2022-07-29T05:42:42;100211.56;;;20.81;66.18
25560;BME280;13450;49.374;8.584;2022-07-29T05:45:08;100214.69;;;20.95;70.00
25560;BME280;13450;49.374;8.584;2022-07-29T05:47:33;100213.94;;;21.04;69.97
25560;BME280;13450;49.374;8.584;2022-07-29T05:49:58;100217.03;;;21.19;64.23
25560;BME280;13450;49.374;8.584;2022-07-29T05:52:26;100219.03;;;21.34;62.06
25560;BME280;13450;49.374;8.584;2022-07-29T05:54:52;100224.53;;;21.44;68.54
25560;BME280;13450;49.374;8.584;2022-07-29T05:57:21;100234.97;;;21.58;64.98
25560;BME280;13450;49.374;8.584;2022-07-29T05:59:48;100237.44;;;21.64;68.66
25560;BME280;13450;49.374;8.584;2022-07-29T06:02:14;100237.78;;;21.73;66.53
25560;BME280;13450;49.374;8.584;2022-07-29T06:04:39;100238.34;;;21.80;66.79
25560;BME280;13450;49.374;8.584;2022-07-29T06:07:04;100243.56;;;21.87;62.76
25560;BME280;13450;49.374;8.584;2022-07-29T06:09:30;100246.03;;;21.94;65.98
25560;BME280;13450;49.374;8.584;2022-07-29T06:11:55;100250.97;;;22.02;62.77
25560;BME280;13450;49.374;8.584;2022-07-29T06:14:39;100240.63;;;22.04;68.62
25560;BME280;13450;49.374;8.584;2022-07-29T06:17:05;100236.81;;;22.11;67.97
25560;BME280;13450;49.374;8.584;2022-07-29T06:19:30;100245.56;;;22.18;70.30
25560;BME280;13450;49.374;8.584;2022-07-29T06:21:56;100237.97;;;22.36;66.18
25560;BME280;13450;49.374;8.584;2022-07-29T06:24:21;100246.72;;;22.48;66.45
25560;BME280;13450;49.374;8.584;2022-07-29T06:26:47;100248.41;;;22.59;65.97
25560;BME280;13450;49.374;8.584;2022-07-29T06:29:12;100246.25;;;22.72;65.15
25560;BME280;13450;49.374;8.584;2022-07-29T06:31:40;100248.41;;;22.96;64.23
25560;BME280;13450;49.374;8.584;2022-07-29T06:34:06;100240.75;;;23.19;63.55
25560;BME280;13450;49.374;8.584;2022-07-29T06:36:35;100246.50;;;23.38;59.94
25560;BME280;13450;49.374;8.584;2022-07-29T06:39:03;100250.28;;;23.58;62.42
25560;BME280;13450;49.374;8.584;2022-07-29T06:41:31;100258.97;;;23.65;59.77
25560;BME280;13450;49.374;8.584;2022-07-29T06:44:00;100257.38;;;23.59;60.46
25560;BME280;13450;49.374;8.584;2022-07-29T06:46:26;100252.19;;;23.52;60.81
25560;BME280;13450;49.374;8.584;2022-07-29T06:48:52;100259.06;;;23.44;59.79
25560;BME280;13450;49.374;8.584;2022-07-29T06:51:18;100260.44;;;23.42;61.31
25560;BME280;13450;49.374;8.584;2022-07-29T06:53:43;100265.03;;;23.46;59.70
25560;BME280;13450;49.374;8.584;2022-07-29T06:56:11;100262.59;;;23.45;60.22
25560;BME280;13450;49.374;8.584;2022-07-29T06:58:39;100265.06;;;23.41;60.33
25560;BME280;13450;49.374;8.584;2022-07-29T07:01:06;100268.63;;;23.42;60.34
25560;BME280;13450;49.374;8.584;2022-07-29T07:03:32;100268.84;;;23.30;61.07
25560;BME280;13450;49.374;8.584;2022-07-29T07:05:58;100264.22;;;23.25;61.43
25560;BME280;13450;49.374;8.584;2022-07-29T07:08:26;100261.50;;;23.20;60.29
25560;BME280;13450;49.374;8.584;2022-07-29T07:10:52;100274.59;;;23.28;61.16
25560;BME280;13450;49.374;8.584;2022-07-29T07:13:19;100269.16;;;23.33;61.05
25560;BME280;13450;49.374;8.584;2022-07-29T07:15:45;100277.06;;;23.40;60.69
25560;BME280;13450;49.374;8.584;2022-07-29T07:18:13;100277.88;;;23.51;60.69
25560;BME280;13450;49.374;8.584;2022-07-29T07:20:38;100275.66;;;23.58;61.08
25560;BME280;13450;49.374;8.584;2022-07-29T07:23:03;100282.75;;;23.54;61.22
25560;BME280;13450;49.374;8.584;2022-07-29T07:25:29;100280.31;;;23.52;61.28
25560;BME280;13450;49.374;8.584;2022-07-29T07:27:55;100278.41;;;23.48;61.05
25560;BME280;13450;49.374;8.584;2022-07-29T07:30:20;100286.59;;;23.53;59.95
25560;BME280;13450;49.374;8.584;2022-07-29T07:32:49;100274.84;;;23.58;59.84
25560;BME280;13450;49.374;8.584;2022-07-29T07:35:14;100285.72;;;23.73;60.13
25560;BME280;13450;49.374;8.584;2022-07-29T07:37:40;100286.47;;;23.95;58.62
25560;BME280;13450;49.374;8.584;2022-07-29T07:40:10;100288.03;;;24.16;57.60
25560;BME280;13450;49.374;8.584;2022-07-29T07:42:37;100291.28;;;24.29;56.47
25560;BME280;13450;49.374;8.584;2022-07-29T07:45:03;100295.03;;;24.38;56.69
25560;BME280;13450;49.374;8.584;2022-07-29T07:47:28;100278.66;;;24.38;56.08
25560;BME280;13450;49.374;8.584;2022-07-29T07:49:53;100280.50;;;24.43;56.37
25560;BME280;13450;49.374;8.584;2022-07-29T07:52:20;100272.63;;;24.41;56.22
25560;BME280;13450;49.374;8.584;2022-07-29T07:54:46;100278.31;;;24.45;56.81
25560;BME280;13450;49.374;8.584;2022-07-29T07:57:12;100286.50;;;24.50;57.27
25560;BME280;13450;49.374;8.584;2022-07-29T07:59:38;100289.31;;;24.80;57.49
25560;BME280;13450;49.374;8.584;2022-07-29T08:02:03;100281.16;;;25.10;56.00
25560;BME280;13450;49.374;8.584;2022-07-29T08:04:29;100280.97;;;25.30;54.89
25560;BME280;13450;49.374;8.584;2022-07-29T08:06:55;100277.22;;;25.51;53.79
25560;BME280;13450;49.374;8.584;2022-07-29T08:09:21;100276.09;;;25.52;54.54
25560;BME280;13450;49.374;8.584;2022-07-29T08:11:46;100278.47;;;25.64;53.19
25560;BME280;13450;49.374;8.584;2022-07-29T08:14:12;100272.91;;;25.93;53.07
25560;BME280;13450;49.374;8.584;2022-07-29T08:16:40;100281.44;;;25.92;53.56
25560;BME280;13450;49.374;8.584;2022-07-29T08:19:07;100275.75;;;26.07;52.20
25560;BME280;13450;49.374;8.584;2022-07-29T08:21:32;100272.88;;;26.18;52.30
25560;BME280;13450;49.374;8.584;2022-07-29T08:23:59;100288.25;;;26.57;51.30
25560;BME280;13450;49.374;8.584;2022-07-29T08:26:43;100285.88;;;26.70;50.52
25560;BME280;13450;49.374;8.584;2022-07-29T08:29:09;100287.81;;;26.69;50.05
25560;BME280;13450;49.374;8.584;2022-07-29T08:31:35;100291.53;;;26.40;51.22
25560;BME280;13450;49.374;8.584;2022-07-29T08:34:01;100290.09;;;26.23;51.85
25560;BME280;13450;49.374;8.584;2022-07-29T08:36:27;100294.53;;;26.19;51.83
25560;BME280;13450;49.374;8.584;2022-07-29T08:38:52;100287.34;;;26.23;51.77
25560;BME280;13450;49.374;8.584;2022-07-29T08:41:22;100293.09;;;26.46;51.41
25560;BME280;13450;49.374;8.584;2022-07-29T08:43:50;100296.63;;;26.85;50.85
25560;BME280;13450;49.374;8.584;2022-07-29T08:46:16;100292.16;;;27.09;50.42
25560;BME280;13450;49.374;8.584;2022-07-29T08:48:42;100296.22;;;26.92;51.91
25560;BME280;13450;49.374;8.584;2022-07-29T08:51:08;100302.06;;;26.52;53.09
25560;BME280;13450;49.374;8.584;2022-07-29T08:53:37;100300.66;;;26.55;53.49
25560;BME280;13450;49.374;8.584;2022-07-29T08:56:06;100292.63;;;26.77;52.80
25560;BME280;13450;49.374;8.584;2022-07-29T08:58:33;100295.09;;;26.93;51.52
25560;BME280;13450;49.374;8.584;2022-07-29T09:01:01;100295.28;;;26.83;52.17
25560;BME280;13450;49.374;8.584;2022-07-29T09:03:32;100299.28;;;26.90;52.46
25560;BME280;13450;49.374;8.584;2022-07-29T09:06:02;100301.50;;;26.88;52.03
25560;BME280;13450;49.374;8.584;2022-07-29T09:08:28;100293.59;;;26.68;52.25
25560;BME280;13450;49.374;8.584;2022-07-29T09:10:54;100296.72;;;26.61;52.90
25560;BME280;13450;49.374;8.584;2022-07-29T09:13:21;100289.34;;;26.75;51.62
25560;BME280;13450;49.374;8.584;2022-07-29T09:15:47;100291.41;;;26.84;50.71
25560;BME280;13450;49.374;8.584;2022-07-29T09:20:59;100294.03;;;26.56;51.35
25560;BME280;13450;49.374;8.584;2022-07-29T09:24:06;100293.44;;;26.40;50.24
25560;BME280;13450;49.374;8.584;2022-07-29T09:26:39;100299.03;;;26.54;49.39
25560;BME280;13450;49.374;8.584;2022-07-29T09:29:13;100304.34;;;26.64;49.38
25560;BME280;13450;49.374;8.584;2022-07-29T09:31:44;100310.28;;;26.71;49.99
25560;BME280;13450;49.374;8.584;2022-07-29T09:34:12;100308.81;;;26.98;48.03
25560;BME280;13450;49.374;8.584;2022-07-29T09:36:42;100308.91;;;26.88;48.58
25560;BME280;13450;49.374;8.584;2022-07-29T09:39:08;100307.84;;;26.70;47.22
25560;BME280;13450;49.374;8.584;2022-07-29T09:41:50;100302.44;;;26.64;47.00
25560;BME280;13450;49.374;8.584;2022-07-29T09:44:19;100303.16;;;26.70;47.88
25560;BME280;13450;49.374;8.584;2022-07-29T09:46:59;100303.16;;;26.70;47.75
25560;BME280;13450;49.374;8.584;2022-07-29T09:49:31;100309.66;;;26.74;47.50
25560;BME280;13450;49.374;8.584;2022-07-29T09:52:08;100309.75;;;26.50;48.07
25560;BME280;13450;49.374;8.584;2022-07-29T09:54:36;100297.31;;;26.58;47.29
25560;BME280;13450;49.374;8.584;2022-07-29T09:57:07;100299.25;;;26.57;46.92
25560;BME280;13450;49.374;8.584;2022-07-29T09:59:34;100297.16;;;26.68;47.34
25560;BME280;13450;49.374;8.584;2022-07-29T10:01:59;100306.84;;;26.80;47.26
25560;BME280;13450;49.374;8.584;2022-07-29T10:04:37;100305.06;;;26.89;46.42
25560;BME280;13450;49.374;8.584;2022-07-29T10:07:03;100304.03;;;27.04;46.76
25560;BME280;13450;49.374;8.584;2022-07-29T10:09:31;100298.06;;;27.16;46.73
25560;BME280;13450;49.374;8.584;2022-07-29T10:12:10;100298.47;;;27.23;45.75
25560;BME280;13450;49.374;8.584;2022-07-29T10:14:36;100299.31;;;27.38;46.01
25560;BME280;13450;49.374;8.584;2022-07-29T10:17:03;100299.34;;;27.52;45.11
25560;BME280;13450;49.374;8.584;2022-07-29T10:19:30;100294.16;;;27.50;45.31
25560;BME280;13450;49.374;8.584;2022-07-29T10:22:00;100283.84;;;27.75;44.89
25560;BME280;13450;49.374;8.584;2022-07-29T10:24:30;100290.81;;;28.10;43.80
25560;BME280;13450;49.374;8.584;2022-07-29T10:26:58;100288.56;;;28.26;43.28
25560;BME280;13450;49.374;8.584;2022-07-29T10:29:25;100280.00;;;28.27;43.17
25560;BME280;13450;49.374;8.584;2022-07-29T10:38:15;100278.25;;;28.68;41.53
25560;BME280;13450;49.374;8.584;2022-07-29T10:44:01;100274.56;;;28.73;41.84
25560;BME280;13450;49.374;8.584;2022-07-29T10:46:27;100272.06;;;28.85;41.04
25560;BME280;13450;49.374;8.584;2022-07-29T10:49:22;100269.69;;;29.16;39.99
25560;BME280;13450;49.374;8.584;2022-07-29T10:57:24;100272.53;;;29.74;39.34
25560;BME280;13450;49.374;8.584;2022-07-29T11:07:39;100270.56;;;30.50;37.96
25560;BME280;13450;49.374;8.584;2022-07-29T11:15:06;100262.25;;;32.12;35.41
25560;BME280;13450;49.374;8.584;2022-07-29T11:20:43;100263.72;;;34.07;32.89
25560;BME280;13450;49.374;8.584;2022-07-29T11:29:24;100256.81;;;37.01;28.09
25560;BME280;13450;49.374;8.584;2022-07-29T11:31:33;100244.16;;;37.54;26.59
25560;BME280;13450;49.374;8.584;2022-07-29T11:34:23;100246.00;;;37.70;26.47
25560;BME280;13450;49.374;8.584;2022-07-29T11:39:49;100243.78;;;39.28;24.67
25560;BME280;13450;49.374;8.584;2022-07-29T11:45:14;100249.16;;;40.33;23.31
25560;BME280;13450;49.374;8.584;2022-07-29T11:47:53;100252.13;;;40.95;22.22
25560;BME280;13450;49.374;8.584;2022-07-29T11:50:36;100252.91;;;41.17;22.96
25560;BME280;13450;49.374;8.584;2022-07-29T11:53:05;100239.19;;;41.92;21.51
25560;BME280;13450;49.374;8.584;2022-07-29T11:55:39;100248.91;;;41.03;22.28
25560;BME280;13450;49.374;8.584;2022-07-29T11:58:04;100234.00;;;41.72;21.35
25560;BME280;13450;49.374;8.584;2022-07-29T12:03:05;100240.44;;;43.19;20.11
25560;BME280;13450;49.374;8.584;2022-07-29T12:05:41;100236.84;;;42.54;20.29
25560;BME280;13450;49.374;8.584;2022-07-29T12:08:09;100232.97;;;42.94;19.80
25560;BME280;13450;49.374;8.584;2022-07-29T12:10:40;100238.19;;;42.95;20.83
25560;BME280;13450;49.374;8.584;2022-07-29T12:13:06;100231.84;;;44.07;19.54
25560;BME280;13450;49.374;8.584;2022-07-29T12:15:34;100229.41;;;43.74;18.92
25560;BME280;13450;49.374;8.584;2022-07-29T12:18:15;100224.22;;;43.30;19.23
25560;BME280;13450;49.374;8.584;2022-07-29T12:20:42;100236.81;;;43.95;18.97
25560;BME280;13450;49.374;8.584;2022-07-29T12:23:09;100235.53;;;43.26;19.42
25560;BME280;13450;49.374;8.584;2022-07-29T12:25:37;100226.44;;;43.88;18.74
25560;BME280;13450;49.374;8.584;2022-07-29T12:28:08;100220.22;;;45.11;18.06
25560;BME280;13450;49.374;8.584;2022-07-29T12:30:52;100227.06;;;46.15;17.24
25560;BME280;13450;49.374;8.584;2022-07-29T12:33:21;100218.19;;;45.56;18.02
25560;BME280;13450;49.374;8.584;2022-07-29T12:35:59;100221.38;;;45.14;17.61
25560;BME280;13450;49.374;8.584;2022-07-29T12:38:25;100219.97;;;44.23;18.48
25560;BME280;13450;49.374;8.584;2022-07-29T12:40:53;100236.63;;;43.75;18.90
25560;BME280;13450;49.374;8.584;2022-07-29T12:43:23;100225.59;;;41.72;19.98
25560;BME280;13450;49.374;8.584;2022-07-29T12:45:53;100222.31;;;40.17;21.64
25560;BME280;13450;49.374;8.584;2022-07-29T12:48:36;100231.25;;;39.67;22.23
25560;BME280;13450;49.374;8.584;2022-07-29T12:51:04;100214.84;;;40.79;21.43
25560;BME280;13450;49.374;8.584;2022-07-29T12:53:30;100214.84;;;40.72;21.63
25560;BME280;13450;49.374;8.584;2022-07-29T12:55:57;100204.06;;;38.62;22.57
25560;BME280;13450;49.374;8.584;2022-07-29T13:04:05;100210.78;;;38.19;23.96
25560;BME280;13450;49.374;8.584;2022-07-29T13:06:31;100200.97;;;36.94;24.96
25560;BME280;13450;49.374;8.584;2022-07-29T13:09:18;100217.31;;;35.57;25.82
25560;BME280;13450;49.374;8.584;2022-07-29T13:11:52;100214.47;;;34.03;28.11
25560;BME280;13450;49.374;8.584;2022-07-29T13:14:38;100206.22;;;33.29;28.92
25560;BME280;13450;49.374;8.584;2022-07-29T13:19:50;100210.31;;;31.87;31.84
25560;BME280;13450;49.374;8.584;2022-07-29T13:22:27;100210.47;;;31.22;32.16
25560;BME280;13450;49.374;8.584;2022-07-29T13:24:59;100212.53;;;30.95;32.19
25560;BME280;13450;49.374;8.584;2022-07-29T13:27:29;100218.56;;;30.70;32.56
25560;BME280;13450;49.374;8.584;2022-07-29T13:29:58;100218.28;;;30.54;32.80
25560;BME280;13450;49.374;8.584;2022-07-29T13:32:25;100226.22;;;30.64;32.79
25560;BME280;13450;49.374;8.584;2022-07-29T13:34:51;100221.22;;;30.40;33.39
25560;BME280;13450;49.374;8.584;2022-07-29T13:37:16;100218.47;;;30.31;33.53
25560;BME280;13450;49.374;8.584;2022-07-29T13:39:42;100221.69;;;30.24;34.13
25560;BME280;13450;49.374;8.584;2022-07-29T13:42:08;100226.59;;;30.19;34.63
25560;BME280;13450;49.374;8.584;2022-07-29T13:44:34;100225.63;;;30.14;34.57
25560;BME280;13450;49.374;8.584;2022-07-29T13:47:01;100224.09;;;29.99;34.87
25560;BME280;13450;49.374;8.584;2022-07-29T13:49:27;100222.00;;;29.87;35.32
25560;BME280;13450;49.374;8.584;2022-07-29T13:51:53;100217.63;;;29.95;34.78
25560;BME280;13450;49.374;8.584;2022-07-29T13:54:19;100210.50;;;30.21;34.59
25560;BME280;13450;49.374;8.584;2022-07-29T13:56:47;100216.50;;;30.40;34.03
25560;BME280;13450;49.374;8.584;2022-07-29T13:59:12;100203.66;;;30.80;33.08
25560;BME280;13450;49.374;8.584;2022-07-29T14:01:39;100204.38;;;31.07;32.57
25560;BME280;13450;49.374;8.584;2022-07-29T14:04:10;100205.34;;;31.11;32.55
25560;BME280;13450;49.374;8.584;2022-07-29T14:06:41;100209.31;;;30.92;31.17